createdAt,value
2022-09-02T00:02:42.707Z,960.27
2022-09-02T00:08:14.660Z,960.21
2022-09-02T00:13:46.616Z,960.18
2022-09-02T00:19:18.670Z,960.14
2022-09-02T00:24:50.551Z,960.12
2022-09-02T00:30:22.261Z,960.10
2022-09-02T00:35:54.201Z,960.06
2022-09-02T00:41:25.985Z,960.02
2022-09-02T00:46:57.867Z,960.02
2022-09-02T00:52:29.699Z,959.98
2022-09-02T00:58:01.338Z,959.92
2022-09-02T01:03:32.864Z,959.92
2022-09-02T01:09:04.733Z,959.86
2022-09-02T01:14:36.284Z,959.86
2022-09-02T01:25:39.776Z,959.88
2022-09-02T01:31:11.487Z,959.90
2022-09-02T01:36:43.096Z,959.88
2022-09-02T01:42:14.851Z,959.88
2022-09-02T01:47:46.818Z,959.80
2022-09-02T01:53:19.174Z,959.74
2022-09-02T01:58:51.314Z,959.74
2022-09-02T02:04:22.728Z,959.72
2022-09-02T02:09:54.912Z,959.67
2022-09-02T02:17:49.259Z,959.61
2022-09-02T02:23:21.145Z,959.65
2022-09-02T02:28:52.780Z,959.59
2022-09-02T02:34:24.607Z,959.61
2022-09-02T02:39:56.403Z,959.61
2022-09-02T02:45:28.311Z,959.59
2022-09-02T02:56:31.882Z,959.51
2022-09-02T03:02:03.644Z,959.49
2022-09-02T03:07:35.093Z,959.49
2022-09-02T03:13:07.072Z,959.45
2022-09-02T03:18:38.812Z,959.43
2022-09-02T03:24:10.440Z,959.41
2022-09-02T03:29:42.078Z,959.39
2022-09-02T03:35:13.832Z,959.35
2022-09-02T03:40:45.711Z,959.35
2022-09-02T03:46:17.320Z,959.37
2022-09-02T03:51:49.528Z,959.33
2022-09-02T03:57:21.564Z,959.33
2022-09-02T04:02:53.547Z,959.31
2022-09-02T04:08:25.336Z,959.27
2022-09-02T04:13:56.939Z,959.27
2022-09-02T04:19:28.619Z,959.25
2022-09-02T04:25:00.432Z,959.23
2022-09-02T04:30:32.127Z,959.23
2022-09-02T04:36:03.658Z,959.25
2022-09-02T04:47:09.135Z,959.23
2022-09-02T04:52:41.103Z,959.23
2022-09-02T04:58:12.942Z,959.23
2022-09-02T05:03:44.817Z,959.23
2022-09-02T05:09:16.505Z,959.27
2022-09-02T05:14:48.272Z,959.31
2022-09-02T05:20:20.129Z,959.35
2022-09-02T05:25:52.082Z,959.33
2022-09-02T05:31:23.759Z,959.33
2022-09-02T05:36:55.649Z,959.31
2022-09-02T05:44:47.588Z,959.31
2022-09-02T05:55:48.796Z,959.31
2022-09-02T06:01:20.668Z,959.31
2022-09-02T06:06:52.371Z,959.31
2022-09-02T06:17:53.767Z,959.27
2022-09-02T06:23:25.316Z,959.25
2022-09-02T06:28:57.241Z,959.23
2022-09-02T06:34:28.931Z,959.21
2022-09-02T06:40:00.633Z,959.19
2022-09-02T06:45:32.759Z,959.18
2022-09-02T06:51:04.602Z,959.16
2022-09-02T06:56:36.225Z,959.14
2022-09-02T07:02:08.303Z,959.04
2022-09-02T07:07:39.565Z,959.14
2022-09-02T07:13:11.736Z,959.16
2022-09-02T07:18:43.374Z,959.16
2022-09-02T07:24:15.194Z,959.18
2022-09-02T07:29:47.202Z,959.19
2022-09-02T07:43:07.655Z,959.14
2022-09-02T07:48:39.564Z,959.14
2022-09-02T07:54:11.422Z,959.12
2022-09-02T08:02:03.288Z,959.04
2022-09-02T08:07:35.216Z,959.02
2022-09-02T08:13:06.943Z,959.00
2022-09-02T08:24:08.548Z,958.94
2022-09-02T08:29:40.136Z,958.94
2022-09-02T08:35:11.890Z,958.92
2022-09-02T08:40:43.796Z,958.88
2022-09-02T08:46:15.542Z,958.86
2022-09-02T08:51:47.211Z,958.82
2022-09-02T08:57:19.045Z,958.80
2022-09-02T09:02:51.039Z,958.76
2022-09-02T09:08:22.704Z,958.74
2022-09-02T09:13:54.347Z,958.74
2022-09-02T09:24:55.949Z,958.72
2022-09-02T09:30:27.812Z,958.74
2022-09-02T09:35:59.499Z,958.70
2022-09-02T09:47:01.281Z,958.59
2022-09-02T09:52:33.122Z,958.57
2022-09-02T09:58:04.764Z,958.55
2022-09-02T10:03:36.475Z,958.51
2022-09-02T10:09:08.174Z,958.47
2022-09-02T10:14:40.123Z,958.47
2022-09-02T10:20:11.953Z,958.45
2022-09-02T10:27:56.325Z,958.39
2022-09-02T10:38:57.667Z,958.37
2022-09-02T10:44:29.525Z,958.33
2022-09-02T10:55:32.097Z,958.25
2022-09-02T11:01:04.059Z,958.21
2022-09-02T11:06:51.809Z,958.16
2022-09-02T11:17:39.495Z,958.14
2022-09-02T11:28:42.912Z,958.00
2022-09-02T11:39:54.488Z,957.96
2022-09-02T11:45:18.459Z,957.90
2022-09-02T11:50:50.263Z,957.88
2022-09-02T11:56:22.039Z,957.90
2022-09-02T12:01:53.701Z,957.90
2022-09-02T12:07:26.777Z,957.86
2022-09-02T12:12:57.163Z,957.80
2022-09-02T12:18:28.901Z,957.74
2022-09-02T12:24:00.990Z,957.72
2022-09-02T12:29:32.832Z,957.74
2022-09-02T12:35:05.287Z,957.74
2022-09-02T12:40:36.550Z,957.74
2022-09-02T12:46:08.804Z,957.72
2022-09-02T12:51:40.545Z,957.67
2022-09-02T12:57:12.688Z,957.63
2022-09-02T13:08:15.356Z,957.63
2022-09-02T13:13:47.388Z,957.59
2022-09-02T13:19:20.805Z,957.51
2022-09-02T13:24:52.470Z,957.47
2022-09-02T13:30:24.215Z,957.45
2022-09-02T13:41:27.710Z,957.35
2022-09-02T13:46:59.593Z,957.29
2022-09-02T13:53:34.311Z,957.25
2022-09-02T14:00:23.732Z,957.21
2022-09-02T14:05:55.580Z,957.21
2022-09-02T14:11:27.244Z,957.23
2022-09-02T14:16:59.802Z,957.17
2022-09-02T14:22:31.355Z,957.14
2022-09-02T14:28:02.945Z,957.12
2022-09-02T14:33:34.658Z,957.08
2022-09-02T14:39:06.581Z,957.02
2022-09-02T14:44:38.061Z,956.96
2022-09-02T14:50:09.959Z,956.88
2022-09-02T14:55:41.647Z,956.82
2022-09-02T15:01:13.659Z,956.76
2022-09-02T15:06:45.489Z,956.72
2022-09-02T15:12:20.124Z,956.69
2022-09-02T15:17:48.666Z,956.65
2022-09-02T15:23:20.718Z,956.63
2022-09-02T15:34:24.331Z,956.63
2022-09-02T15:39:56.277Z,956.65
2022-09-02T15:45:27.947Z,956.67
2022-09-02T15:50:59.808Z,956.67
2022-09-02T15:56:31.373Z,956.63
2022-09-02T16:02:03.380Z,956.59
2022-09-02T16:07:35.136Z,956.55
2022-09-02T16:13:06.733Z,956.47
2022-09-02T16:18:38.971Z,956.45
2022-09-02T16:24:10.392Z,956.41
2022-09-02T16:29:42.166Z,956.37
2022-09-02T16:35:13.986Z,956.33
2022-09-02T16:40:45.667Z,956.35
2022-09-02T16:46:18.204Z,956.35
2022-09-02T16:51:50.427Z,956.37
2022-09-02T16:57:22.164Z,956.37
2022-09-02T17:02:54.312Z,956.35
2022-09-02T17:08:25.714Z,956.31
2022-09-02T17:13:57.803Z,956.25
2022-09-02T17:19:32.320Z,956.25
2022-09-02T17:30:32.625Z,956.23
2022-09-02T17:41:33.722Z,956.25
2022-09-02T17:52:37.282Z,956.25
2022-09-02T17:58:09.328Z,956.23
2022-09-02T18:03:40.965Z,956.29
2022-09-02T18:20:11.592Z,956.31
2022-09-02T18:25:43.394Z,956.35
2022-09-02T18:31:15.162Z,956.41
2022-09-02T18:36:46.633Z,956.55
2022-09-02T18:42:18.286Z,956.65
2022-09-02T18:47:50.097Z,956.65
2022-09-02T18:53:21.378Z,956.67
2022-09-02T19:04:27.388Z,956.65
2022-09-02T19:09:55.808Z,956.69
2022-09-02T19:15:27.216Z,956.78
2022-09-02T19:26:28.166Z,956.90
2022-09-02T19:32:05.899Z,956.94
2022-09-02T19:37:44.212Z,956.90
2022-09-02T19:43:08.994Z,956.88
2022-09-02T19:48:40.693Z,956.82
2022-09-02T19:54:12.623Z,956.80
2022-09-02T19:59:44.427Z,956.76
2022-09-02T20:05:16.248Z,956.78
2022-09-02T20:16:17.738Z,956.86
2022-09-02T20:21:49.328Z,956.94
2022-09-02T20:32:51.097Z,956.92
2022-09-02T20:38:23.531Z,956.92
2022-09-02T20:43:56.067Z,956.90
2022-09-02T20:49:28.198Z,956.84
2022-09-02T20:57:20.593Z,956.84
2022-09-02T21:02:52.530Z,956.88
2022-09-02T21:08:24.398Z,956.84
2022-09-02T21:13:56.382Z,956.80
2022-09-02T21:19:27.821Z,956.80
2022-09-02T21:24:59.660Z,956.80
2022-09-02T21:30:31.605Z,956.78
2022-09-02T21:36:06.850Z,956.80
2022-09-02T21:41:38.434Z,956.84
2022-09-02T21:47:10.381Z,956.84
2022-09-02T21:52:42.267Z,956.84
2022-09-02T21:58:14.017Z,956.86
2022-09-02T22:03:45.763Z,956.86
2022-09-02T22:09:17.893Z,956.82
2022-09-02T22:22:39.212Z,956.86
2022-09-02T22:28:10.591Z,956.86
2022-09-02T22:39:16.721Z,956.86
2022-09-02T22:50:13.191Z,956.72
2022-09-02T22:55:45.267Z,956.70
2022-09-02T23:01:17.058Z,956.72
2022-09-02T23:06:48.629Z,956.74
2022-09-02T23:12:20.754Z,956.78
2022-09-02T23:17:52.319Z,956.74
2022-09-02T23:23:24.336Z,956.74
2022-09-02T23:28:56.168Z,956.72
2022-09-02T23:34:27.645Z,956.69
2022-09-02T23:39:59.527Z,956.67
2022-09-02T23:45:31.460Z,956.67
2022-09-02T23:51:03.380Z,956.63
2022-09-02T23:56:34.854Z,956.63
